sensor_id;sensor_type;location;lat;lon;timestamp;P1;durP1;ratioP1;P2;durP2;ratioP2
71888;SDS011;59762;49.998;14.858;2023-08-01T00:00:39;5.80;;;2.83;;
71888;SDS011;59762;49.998;14.858;2023-08-01T00:05:50;6.50;;;2.72;;
71888;SDS011;59762;49.998;14.858;2023-08-01T00:08:15;5.45;;;2.72;;
71888;SDS011;59762;49.998;14.858;2023-08-01T00:10:41;4.90;;;2.95;;
71888;SDS011;59762;49.998;14.858;2023-08-01T00:13:07;6.28;;;2.95;;
71888;SDS011;59762;49.998;14.858;2023-08-01T00:15:33;5.03;;;2.72;;
71888;SDS011;59762;49.998;14.858;2023-08-01T00:17:59;4.38;;;2.92;;
71888;SDS011;59762;49.998;14.858;2023-08-01T00:20:25;4.70;;;2.95;;
71888;SDS011;59762;49.998;14.858;2023-08-01T00:22:51;8.50;;;3.00;;
71888;SDS011;59762;49.998;14.858;2023-08-01T00:25:17;4.28;;;2.95;;
71888;SDS011;59762;49.998;14.858;2023-08-01T00:27:43;5.72;;;2.88;;
71888;SDS011;59762;49.998;14.858;2023-08-01T00:30:09;4.65;;;3.00;;
71888;SDS011;59762;49.998;14.858;2023-08-01T00:32:35;4.55;;;2.90;;
71888;SDS011;59762;49.998;14.858;2023-08-01T00:35:02;6.55;;;2.63;;
71888;SDS011;59762;49.998;14.858;2023-08-01T00:37:29;7.85;;;3.00;;
71888;SDS011;59762;49.998;14.858;2023-08-01T00:39:54;5.40;;;2.78;;
71888;SDS011;59762;49.998;14.858;2023-08-01T00:42:20;7.38;;;2.90;;
71888;SDS011;59762;49.998;14.858;2023-08-01T00:44:46;6.03;;;3.42;;
71888;SDS011;59762;49.998;14.858;2023-08-01T00:47:13;4.93;;;3.08;;
71888;SDS011;59762;49.998;14.858;2023-08-01T00:49:40;5.15;;;2.90;;
71888;SDS011;59762;49.998;14.858;2023-08-01T00:52:06;4.68;;;3.08;;
71888;SDS011;59762;49.998;14.858;2023-08-01T00:54:32;5.70;;;2.88;;
71888;SDS011;59762;49.998;14.858;2023-08-01T00:57:04;8.43;;;3.15;;
71888;SDS011;59762;49.998;14.858;2023-08-01T00:59:31;6.45;;;3.28;;
71888;SDS011;59762;49.998;14.858;2023-08-01T01:01:57;5.43;;;3.13;;
71888;SDS011;59762;49.998;14.858;2023-08-01T01:04:25;8.30;;;3.20;;
71888;SDS011;59762;49.998;14.858;2023-08-01T01:06:52;6.00;;;2.78;;
71888;SDS011;59762;49.998;14.858;2023-08-01T01:09:21;5.30;;;2.90;;
71888;SDS011;59762;49.998;14.858;2023-08-01T01:11:46;8.95;;;3.08;;
71888;SDS011;59762;49.998;14.858;2023-08-01T01:14:12;10.93;;;3.47;;
71888;SDS011;59762;49.998;14.858;2023-08-01T01:16:38;6.25;;;3.50;;
71888;SDS011;59762;49.998;14.858;2023-08-01T01:19:07;10.75;;;4.13;;
71888;SDS011;59762;49.998;14.858;2023-08-01T01:21:37;6.65;;;2.92;;
71888;SDS011;59762;49.998;14.858;2023-08-01T01:24:05;6.22;;;2.97;;
71888;SDS011;59762;49.998;14.858;2023-08-01T01:26:33;4.13;;;2.80;;
71888;SDS011;59762;49.998;14.858;2023-08-01T01:28:59;4.32;;;2.78;;
71888;SDS011;59762;49.998;14.858;2023-08-01T01:31:27;9.10;;;3.45;;
71888;SDS011;59762;49.998;14.858;2023-08-01T01:33:54;6.75;;;3.00;;
71888;SDS011;59762;49.998;14.858;2023-08-01T01:36:20;8.38;;;3.40;;
71888;SDS011;59762;49.998;14.858;2023-08-01T01:38:46;8.10;;;3.28;;
71888;SDS011;59762;49.998;14.858;2023-08-01T01:41:11;6.05;;;3.28;;
71888;SDS011;59762;49.998;14.858;2023-08-01T01:43:37;11.05;;;3.70;;
71888;SDS011;59762;49.998;14.858;2023-08-01T01:46:06;7.32;;;3.97;;
71888;SDS011;59762;49.998;14.858;2023-08-01T01:48:32;8.38;;;3.75;;
71888;SDS011;59762;49.998;14.858;2023-08-01T01:50:57;6.35;;;3.88;;
71888;SDS011;59762;49.998;14.858;2023-08-01T01:53:23;8.15;;;3.83;;
71888;SDS011;59762;49.998;14.858;2023-08-01T01:55:48;9.15;;;4.50;;
71888;SDS011;59762;49.998;14.858;2023-08-01T01:58:14;5.55;;;3.92;;
71888;SDS011;59762;49.998;14.858;2023-08-01T02:00:40;7.55;;;3.83;;
71888;SDS011;59762;49.998;14.858;2023-08-01T02:03:05;8.07;;;3.80;;
71888;SDS011;59762;49.998;14.858;2023-08-01T02:05:35;5.65;;;3.10;;
71888;SDS011;59762;49.998;14.858;2023-08-01T02:08:01;9.30;;;3.22;;
71888;SDS011;59762;49.998;14.858;2023-08-01T02:10:27;7.03;;;3.42;;
71888;SDS011;59762;49.998;14.858;2023-08-01T02:12:53;5.70;;;3.28;;
71888;SDS011;59762;49.998;14.858;2023-08-01T02:15:18;5.57;;;3.13;;
71888;SDS011;59762;49.998;14.858;2023-08-01T02:17:44;5.13;;;3.08;;
71888;SDS011;59762;49.998;14.858;2023-08-01T02:20:10;6.18;;;3.40;;
71888;SDS011;59762;49.998;14.858;2023-08-01T02:22:36;4.70;;;3.30;;
71888;SDS011;59762;49.998;14.858;2023-08-01T02:25:01;8.98;;;3.83;;
71888;SDS011;59762;49.998;14.858;2023-08-01T02:27:27;6.20;;;3.67;;
71888;SDS011;59762;49.998;14.858;2023-08-01T02:29:53;8.02;;;3.40;;
71888;SDS011;59762;49.998;14.858;2023-08-01T02:32:18;8.40;;;3.65;;
71888;SDS011;59762;49.998;14.858;2023-08-01T02:34:44;7.07;;;3.30;;
71888;SDS011;59762;49.998;14.858;2023-08-01T02:37:10;7.00;;;3.55;;
71888;SDS011;59762;49.998;14.858;2023-08-01T02:39:35;8.13;;;3.75;;
71888;SDS011;59762;49.998;14.858;2023-08-01T02:42:01;6.35;;;4.40;;
71888;SDS011;59762;49.998;14.858;2023-08-01T02:44:28;7.20;;;3.35;;
71888;SDS011;59762;49.998;14.858;2023-08-01T02:46:54;5.68;;;3.38;;
71888;SDS011;59762;49.998;14.858;2023-08-01T02:49:19;7.30;;;3.30;;
71888;SDS011;59762;49.998;14.858;2023-08-01T02:51:45;5.57;;;3.47;;
71888;SDS011;59762;49.998;14.858;2023-08-01T02:54:11;7.65;;;3.60;;
71888;SDS011;59762;49.998;14.858;2023-08-01T02:56:37;9.15;;;3.20;;
71888;SDS011;59762;49.998;14.858;2023-08-01T02:59:06;5.38;;;3.22;;
71888;SDS011;59762;49.998;14.858;2023-08-01T03:01:34;5.68;;;3.67;;
71888;SDS011;59762;49.998;14.858;2023-08-01T03:04:02;6.93;;;3.70;;
71888;SDS011;59762;49.998;14.858;2023-08-01T03:06:29;6.60;;;4.00;;
71888;SDS011;59762;49.998;14.858;2023-08-01T03:08:55;6.82;;;3.38;;
71888;SDS011;59762;49.998;14.858;2023-08-01T03:11:21;6.45;;;3.40;;
71888;SDS011;59762;49.998;14.858;2023-08-01T03:13:46;7.07;;;3.38;;
71888;SDS011;59762;49.998;14.858;2023-08-01T03:16:12;7.28;;;3.55;;
71888;SDS011;59762;49.998;14.858;2023-08-01T03:18:38;4.20;;;3.13;;
71888;SDS011;59762;49.998;14.858;2023-08-01T03:21:03;7.43;;;3.50;;
71888;SDS011;59762;49.998;14.858;2023-08-01T03:23:29;6.40;;;3.75;;
71888;SDS011;59762;49.998;14.858;2023-08-01T03:25:55;6.75;;;3.35;;
71888;SDS011;59762;49.998;14.858;2023-08-01T03:28:21;8.20;;;3.58;;
71888;SDS011;59762;49.998;14.858;2023-08-01T03:30:47;4.32;;;3.10;;
71888;SDS011;59762;49.998;14.858;2023-08-01T03:33:16;9.55;;;3.30;;
71888;SDS011;59762;49.998;14.858;2023-08-01T03:35:42;8.65;;;3.10;;
71888;SDS011;59762;49.998;14.858;2023-08-01T03:38:07;5.22;;;3.40;;
71888;SDS011;59762;49.998;14.858;2023-08-01T03:40:33;6.47;;;3.38;;
71888;SDS011;59762;49.998;14.858;2023-08-01T03:42:59;6.00;;;3.53;;
71888;SDS011;59762;49.998;14.858;2023-08-01T03:45:24;6.88;;;3.55;;
71888;SDS011;59762;49.998;14.858;2023-08-01T03:47:50;8.13;;;3.63;;
71888;SDS011;59762;49.998;14.858;2023-08-01T03:50:16;4.70;;;3.15;;
71888;SDS011;59762;49.998;14.858;2023-08-01T03:52:42;4.85;;;3.30;;
71888;SDS011;59762;49.998;14.858;2023-08-01T03:55:07;5.53;;;3.60;;
71888;SDS011;59762;49.998;14.858;2023-08-01T03:57:33;7.22;;;3.28;;
71888;SDS011;59762;49.998;14.858;2023-08-01T04:00:00;5.80;;;3.58;;
71888;SDS011;59762;49.998;14.858;2023-08-01T04:02:25;6.53;;;3.47;;
71888;SDS011;59762;49.998;14.858;2023-08-01T04:04:51;6.15;;;3.45;;
71888;SDS011;59762;49.998;14.858;2023-08-01T04:07:18;6.68;;;3.42;;
71888;SDS011;59762;49.998;14.858;2023-08-01T04:09:44;6.53;;;3.38;;
71888;SDS011;59762;49.998;14.858;2023-08-01T04:12:09;8.07;;;3.63;;
71888;SDS011;59762;49.998;14.858;2023-08-01T04:14:35;5.07;;;3.20;;
71888;SDS011;59762;49.998;14.858;2023-08-01T04:17:01;6.65;;;3.45;;
71888;SDS011;59762;49.998;14.858;2023-08-01T04:19:27;4.55;;;3.28;;
71888;SDS011;59762;49.998;14.858;2023-08-01T04:21:52;8.30;;;3.40;;
71888;SDS011;59762;49.998;14.858;2023-08-01T04:24:18;7.95;;;3.55;;
71888;SDS011;59762;49.998;14.858;2023-08-01T04:26:44;6.75;;;3.28;;
71888;SDS011;59762;49.998;14.858;2023-08-01T04:29:09;10.48;;;3.72;;
71888;SDS011;59762;49.998;14.858;2023-08-01T04:31:35;4.68;;;3.40;;
71888;SDS011;59762;49.998;14.858;2023-08-01T04:34:01;4.72;;;3.20;;
71888;SDS011;59762;49.998;14.858;2023-08-01T04:36:26;6.70;;;4.32;;
71888;SDS011;59762;49.998;14.858;2023-08-01T04:38:52;5.88;;;3.75;;
71888;SDS011;59762;49.998;14.858;2023-08-01T04:41:17;7.07;;;3.60;;
71888;SDS011;59762;49.998;14.858;2023-08-01T04:43:43;5.53;;;3.40;;
71888;SDS011;59762;49.998;14.858;2023-08-01T04:46:09;4.07;;;2.90;;
71888;SDS011;59762;49.998;14.858;2023-08-01T04:48:35;5.35;;;3.92;;
71888;SDS011;59762;49.998;14.858;2023-08-01T04:51:00;8.40;;;3.88;;
71888;SDS011;59762;49.998;14.858;2023-08-01T04:53:26;7.57;;;3.72;;
71888;SDS011;59762;49.998;14.858;2023-08-01T04:55:51;7.72;;;3.78;;
71888;SDS011;59762;49.998;14.858;2023-08-01T04:58:17;6.68;;;3.42;;
71888;SDS011;59762;49.998;14.858;2023-08-01T05:00:43;6.10;;;3.47;;
71888;SDS011;59762;49.998;14.858;2023-08-01T05:03:09;7.35;;;3.42;;
71888;SDS011;59762;49.998;14.858;2023-08-01T05:05:34;5.38;;;3.60;;
71888;SDS011;59762;49.998;14.858;2023-08-01T05:08:00;5.18;;;3.33;;
71888;SDS011;59762;49.998;14.858;2023-08-01T05:10:25;7.47;;;2.97;;
71888;SDS011;59762;49.998;14.858;2023-08-01T05:12:51;4.13;;;2.90;;
71888;SDS011;59762;49.998;14.858;2023-08-01T05:15:17;9.38;;;3.05;;
71888;SDS011;59762;49.998;14.858;2023-08-01T05:17:43;5.63;;;3.03;;
71888;SDS011;59762;49.998;14.858;2023-08-01T05:20:08;5.55;;;3.25;;
71888;SDS011;59762;49.998;14.858;2023-08-01T05:22:35;4.47;;;3.35;;
71888;SDS011;59762;49.998;14.858;2023-08-01T05:25:00;6.13;;;3.60;;
71888;SDS011;59762;49.998;14.858;2023-08-01T05:27:27;6.35;;;3.47;;
71888;SDS011;59762;49.998;14.858;2023-08-01T05:29:53;6.93;;;3.80;;
71888;SDS011;59762;49.998;14.858;2023-08-01T05:32:18;6.65;;;3.78;;
71888;SDS011;59762;49.998;14.858;2023-08-01T05:34:44;7.15;;;3.60;;
71888;SDS011;59762;49.998;14.858;2023-08-01T05:37:10;6.05;;;3.50;;
71888;SDS011;59762;49.998;14.858;2023-08-01T05:39:35;5.18;;;3.50;;
71888;SDS011;59762;49.998;14.858;2023-08-01T05:42:01;9.15;;;3.95;;
71888;SDS011;59762;49.998;14.858;2023-08-01T05:44:27;7.80;;;3.80;;
71888;SDS011;59762;49.998;14.858;2023-08-01T05:46:52;6.10;;;3.63;;
71888;SDS011;59762;49.998;14.858;2023-08-01T05:49:18;5.32;;;3.75;;
71888;SDS011;59762;49.998;14.858;2023-08-01T05:51:44;8.32;;;4.03;;
71888;SDS011;59762;49.998;14.858;2023-08-01T05:54:09;7.25;;;3.35;;
71888;SDS011;59762;49.998;14.858;2023-08-01T05:56:35;6.43;;;3.50;;
71888;SDS011;59762;49.998;14.858;2023-08-01T05:59:01;8.88;;;3.20;;
71888;SDS011;59762;49.998;14.858;2023-08-01T06:01:26;6.47;;;3.67;;
71888;SDS011;59762;49.998;14.858;2023-08-01T06:03:52;5.68;;;3.03;;
71888;SDS011;59762;49.998;14.858;2023-08-01T06:06:18;5.10;;;3.47;;
71888;SDS011;59762;49.998;14.858;2023-08-01T06:08:43;5.03;;;3.17;;
71888;SDS011;59762;49.998;14.858;2023-08-01T06:11:09;7.47;;;3.88;;
71888;SDS011;59762;49.998;14.858;2023-08-01T06:13:35;10.27;;;3.60;;
71888;SDS011;59762;49.998;14.858;2023-08-01T06:16:01;5.63;;;3.08;;
71888;SDS011;59762;49.998;14.858;2023-08-01T06:18:26;9.27;;;4.10;;
71888;SDS011;59762;49.998;14.858;2023-08-01T06:20:52;5.70;;;3.03;;
71888;SDS011;59762;49.998;14.858;2023-08-01T06:23:18;4.90;;;3.00;;
71888;SDS011;59762;49.998;14.858;2023-08-01T06:25:44;4.60;;;2.80;;
71888;SDS011;59762;49.998;14.858;2023-08-01T06:28:09;7.40;;;2.97;;
71888;SDS011;59762;49.998;14.858;2023-08-01T06:30:35;7.05;;;3.25;;
71888;SDS011;59762;49.998;14.858;2023-08-01T06:33:00;4.18;;;2.95;;
71888;SDS011;59762;49.998;14.858;2023-08-01T06:35:26;6.00;;;3.42;;
71888;SDS011;59762;49.998;14.858;2023-08-01T06:37:52;5.57;;;3.00;;
71888;SDS011;59762;49.998;14.858;2023-08-01T06:40:18;5.65;;;2.70;;
71888;SDS011;59762;49.998;14.858;2023-08-01T06:42:43;5.13;;;2.55;;
71888;SDS011;59762;49.998;14.858;2023-08-01T06:45:09;5.63;;;2.67;;
71888;SDS011;59762;49.998;14.858;2023-08-01T06:47:34;5.00;;;2.67;;
71888;SDS011;59762;49.998;14.858;2023-08-01T06:50:00;4.57;;;2.70;;
71888;SDS011;59762;49.998;14.858;2023-08-01T06:52:26;7.15;;;2.42;;
71888;SDS011;59762;49.998;14.858;2023-08-01T06:54:52;4.00;;;2.40;;
71888;SDS011;59762;49.998;14.858;2023-08-01T06:57:17;6.45;;;2.70;;
71888;SDS011;59762;49.998;14.858;2023-08-01T06:59:43;3.83;;;2.42;;
71888;SDS011;59762;49.998;14.858;2023-08-01T07:02:09;6.15;;;2.50;;
71888;SDS011;59762;49.998;14.858;2023-08-01T07:04:34;5.97;;;2.88;;
71888;SDS011;59762;49.998;14.858;2023-08-01T07:07:00;4.25;;;3.00;;
71888;SDS011;59762;49.998;14.858;2023-08-01T07:09:26;5.60;;;3.15;;
71888;SDS011;59762;49.998;14.858;2023-08-01T07:11:51;5.30;;;2.58;;
71888;SDS011;59762;49.998;14.858;2023-08-01T07:14:17;4.60;;;2.85;;
71888;SDS011;59762;49.998;14.858;2023-08-01T07:16:43;5.07;;;3.17;;
71888;SDS011;59762;49.998;14.858;2023-08-01T07:19:08;4.75;;;3.20;;
71888;SDS011;59762;49.998;14.858;2023-08-01T07:21:34;4.10;;;2.90;;
71888;SDS011;59762;49.998;14.858;2023-08-01T07:24:00;6.03;;;2.90;;
71888;SDS011;59762;49.998;14.858;2023-08-01T07:26:25;4.88;;;2.88;;
71888;SDS011;59762;49.998;14.858;2023-08-01T07:28:54;6.43;;;3.50;;
71888;SDS011;59762;49.998;14.858;2023-08-01T07:31:19;7.15;;;3.50;;
71888;SDS011;59762;49.998;14.858;2023-08-01T07:33:45;7.00;;;3.70;;
71888;SDS011;59762;49.998;14.858;2023-08-01T07:36:11;9.82;;;5.25;;
71888;SDS011;59762;49.998;14.858;2023-08-01T07:38:37;11.25;;;6.22;;
71888;SDS011;59762;49.998;14.858;2023-08-01T07:41:05;9.13;;;5.97;;
71888;SDS011;59762;49.998;14.858;2023-08-01T07:43:32;8.50;;;5.20;;
71888;SDS011;59762;49.998;14.858;2023-08-01T07:45:58;11.07;;;5.43;;
71888;SDS011;59762;49.998;14.858;2023-08-01T07:48:25;7.63;;;4.72;;
71888;SDS011;59762;49.998;14.858;2023-08-01T07:50:50;7.35;;;4.35;;
71888;SDS011;59762;49.998;14.858;2023-08-01T07:53:16;6.50;;;3.92;;
71888;SDS011;59762;49.998;14.858;2023-08-01T07:55:42;5.93;;;3.70;;
71888;SDS011;59762;49.998;14.858;2023-08-01T07:58:07;6.88;;;3.63;;
71888;SDS011;59762;49.998;14.858;2023-08-01T08:00:36;6.13;;;3.70;;
71888;SDS011;59762;49.998;14.858;2023-08-01T08:03:02;9.00;;;3.75;;
71888;SDS011;59762;49.998;14.858;2023-08-01T08:05:28;8.13;;;4.05;;
71888;SDS011;59762;49.998;14.858;2023-08-01T08:07:54;7.80;;;3.40;;
71888;SDS011;59762;49.998;14.858;2023-08-01T08:10:19;6.53;;;3.40;;
71888;SDS011;59762;49.998;14.858;2023-08-01T08:12:45;7.70;;;3.75;;
71888;SDS011;59762;49.998;14.858;2023-08-01T08:15:10;5.57;;;3.08;;
71888;SDS011;59762;49.998;14.858;2023-08-01T08:17:39;8.05;;;3.42;;
71888;SDS011;59762;49.998;14.858;2023-08-01T08:20:04;6.00;;;3.67;;
71888;SDS011;59762;49.998;14.858;2023-08-01T08:22:31;7.88;;;3.70;;
71888;SDS011;59762;49.998;14.858;2023-08-01T08:24:57;6.47;;;3.20;;
71888;SDS011;59762;49.998;14.858;2023-08-01T08:27:23;4.68;;;3.55;;
71888;SDS011;59762;49.998;14.858;2023-08-01T08:29:49;7.32;;;4.10;;
71888;SDS011;59762;49.998;14.858;2023-08-01T08:32:15;4.28;;;3.08;;
71888;SDS011;59762;49.998;14.858;2023-08-01T08:34:41;4.78;;;3.38;;
71888;SDS011;59762;49.998;14.858;2023-08-01T08:37:06;7.03;;;4.53;;
71888;SDS011;59762;49.998;14.858;2023-08-01T08:39:32;6.75;;;3.67;;
71888;SDS011;59762;49.998;14.858;2023-08-01T08:41:58;5.28;;;4.00;;
71888;SDS011;59762;49.998;14.858;2023-08-01T08:44:24;7.65;;;4.10;;
71888;SDS011;59762;49.998;14.858;2023-08-01T08:46:51;6.00;;;3.55;;
71888;SDS011;59762;49.998;14.858;2023-08-01T08:49:18;5.10;;;3.78;;
71888;SDS011;59762;49.998;14.858;2023-08-01T08:51:47;7.30;;;3.88;;
71888;SDS011;59762;49.998;14.858;2023-08-01T08:54:14;5.63;;;3.45;;
71888;SDS011;59762;49.998;14.858;2023-08-01T08:56:41;5.07;;;3.42;;
71888;SDS011;59762;49.998;14.858;2023-08-01T08:59:10;5.40;;;3.22;;
71888;SDS011;59762;49.998;14.858;2023-08-01T09:01:36;6.90;;;2.85;;
71888;SDS011;59762;49.998;14.858;2023-08-01T09:04:03;7.85;;;3.38;;
71888;SDS011;59762;49.998;14.858;2023-08-01T09:06:32;6.30;;;2.95;;
71888;SDS011;59762;49.998;14.858;2023-08-01T09:09:10;7.57;;;3.17;;
71888;SDS011;59762;49.998;14.858;2023-08-01T09:11:49;4.40;;;2.75;;
71888;SDS011;59762;49.998;14.858;2023-08-01T09:14:17;5.35;;;2.85;;
71888;SDS011;59762;49.998;14.858;2023-08-01T09:16:44;4.45;;;3.13;;
71888;SDS011;59762;49.998;14.858;2023-08-01T09:19:10;6.18;;;3.08;;
71888;SDS011;59762;49.998;14.858;2023-08-01T09:21:39;5.63;;;3.03;;
71888;SDS011;59762;49.998;14.858;2023-08-01T09:26:34;4.05;;;3.22;;
71888;SDS011;59762;49.998;14.858;2023-08-01T09:29:00;5.78;;;2.95;;
71888;SDS011;59762;49.998;14.858;2023-08-01T09:31:26;5.72;;;3.05;;
71888;SDS011;59762;49.998;14.858;2023-08-01T09:33:54;4.50;;;3.00;;
71888;SDS011;59762;49.998;14.858;2023-08-01T09:36:23;6.88;;;3.25;;
71888;SDS011;59762;49.998;14.858;2023-08-01T09:38:57;3.85;;;2.97;;
71888;SDS011;59762;49.998;14.858;2023-08-01T09:41:30;5.95;;;3.03;;
71888;SDS011;59762;49.998;14.858;2023-08-01T09:43:58;4.57;;;2.92;;
71888;SDS011;59762;49.998;14.858;2023-08-01T09:46:24;3.60;;;2.67;;
71888;SDS011;59762;49.998;14.858;2023-08-01T09:48:50;5.72;;;2.80;;
71888;SDS011;59762;49.998;14.858;2023-08-01T09:51:16;4.95;;;2.55;;
71888;SDS011;59762;49.998;14.858;2023-08-01T09:56:14;4.10;;;2.72;;
71888;SDS011;59762;49.998;14.858;2023-08-01T09:58:42;4.10;;;2.55;;
71888;SDS011;59762;49.998;14.858;2023-08-01T10:01:10;5.18;;;3.00;;
71888;SDS011;59762;49.998;14.858;2023-08-01T10:03:41;3.63;;;2.58;;
71888;SDS011;59762;49.998;14.858;2023-08-01T10:06:13;3.75;;;2.35;;
71888;SDS011;59762;49.998;14.858;2023-08-01T10:08:43;5.28;;;2.42;;
71888;SDS011;59762;49.998;14.858;2023-08-01T10:11:09;4.22;;;2.45;;
71888;SDS011;59762;49.998;14.858;2023-08-01T10:13:37;3.22;;;2.20;;
71888;SDS011;59762;49.998;14.858;2023-08-01T10:16:03;2.67;;;2.15;;
71888;SDS011;59762;49.998;14.858;2023-08-01T10:18:31;2.33;;;2.10;;
71888;SDS011;59762;49.998;14.858;2023-08-01T10:20:57;3.28;;;2.30;;
71888;SDS011;59762;49.998;14.858;2023-08-01T10:23:24;3.65;;;2.30;;
71888;SDS011;59762;49.998;14.858;2023-08-01T10:25:51;3.20;;;2.17;;
71888;SDS011;59762;49.998;14.858;2023-08-01T10:28:17;4.53;;;2.58;;
71888;SDS011;59762;49.998;14.858;2023-08-01T10:30:43;2.88;;;2.15;;
71888;SDS011;59762;49.998;14.858;2023-08-01T10:33:08;3.25;;;2.30;;
71888;SDS011;59762;49.998;14.858;2023-08-01T10:35:38;5.38;;;2.30;;
71888;SDS011;59762;49.998;14.858;2023-08-01T10:38:11;3.90;;;2.05;;
71888;SDS011;59762;49.998;14.858;2023-08-01T10:40:37;3.35;;;2.05;;
71888;SDS011;59762;49.998;14.858;2023-08-01T10:43:05;3.53;;;2.35;;
71888;SDS011;59762;49.998;14.858;2023-08-01T10:45:31;2.53;;;2.00;;
71888;SDS011;59762;49.998;14.858;2023-08-01T10:48:07;2.35;;;1.90;;
71888;SDS011;59762;49.998;14.858;2023-08-01T10:50:33;3.72;;;2.22;;
71888;SDS011;59762;49.998;14.858;2023-08-01T10:53:06;3.00;;;2.00;;
71888;SDS011;59762;49.998;14.858;2023-08-01T10:55:44;5.82;;;2.03;;
71888;SDS011;59762;49.998;14.858;2023-08-01T10:58:11;3.83;;;2.17;;
71888;SDS011;59762;49.998;14.858;2023-08-01T11:00:38;4.53;;;2.38;;
71888;SDS011;59762;49.998;14.858;2023-08-01T11:03:04;2.92;;;2.13;;
71888;SDS011;59762;49.998;14.858;2023-08-01T11:05:29;4.15;;;2.22;;
71888;SDS011;59762;49.998;14.858;2023-08-01T11:07:59;3.22;;;2.00;;
71888;SDS011;59762;49.998;14.858;2023-08-01T11:10:26;3.17;;;1.88;;
71888;SDS011;59762;49.998;14.858;2023-08-01T11:12:53;5.05;;;1.98;;
71888;SDS011;59762;49.998;14.858;2023-08-01T11:15:20;3.58;;;2.42;;
71888;SDS011;59762;49.998;14.858;2023-08-01T11:17:47;3.47;;;2.22;;
71888;SDS011;59762;49.998;14.858;2023-08-01T11:20:14;4.07;;;2.00;;
71888;SDS011;59762;49.998;14.858;2023-08-01T11:22:55;3.47;;;2.08;;
71888;SDS011;59762;49.998;14.858;2023-08-01T11:25:38;2.08;;;1.75;;
71888;SDS011;59762;49.998;14.858;2023-08-01T11:28:09;5.40;;;2.10;;
71888;SDS011;59762;49.998;14.858;2023-08-01T11:30:36;3.30;;;2.10;;
71888;SDS011;59762;49.998;14.858;2023-08-01T11:33:12;3.95;;;1.90;;
71888;SDS011;59762;49.998;14.858;2023-08-01T11:35:52;2.70;;;2.08;;
71888;SDS011;59762;49.998;14.858;2023-08-01T11:38:21;3.20;;;2.17;;
71888;SDS011;59762;49.998;14.858;2023-08-01T11:40:48;2.97;;;2.17;;
71888;SDS011;59762;49.998;14.858;2023-08-01T11:43:16;2.03;;;1.75;;
71888;SDS011;59762;49.998;14.858;2023-08-01T11:45:48;4.20;;;2.20;;
71888;SDS011;59762;49.998;14.858;2023-08-01T11:48:21;3.05;;;2.15;;
71888;SDS011;59762;49.998;14.858;2023-08-01T11:50:48;2.75;;;2.05;;
71888;SDS011;59762;49.998;14.858;2023-08-01T11:53:18;3.00;;;1.90;;
71888;SDS011;59762;49.998;14.858;2023-08-01T11:55:47;2.50;;;1.75;;
71888;SDS011;59762;49.998;14.858;2023-08-01T11:58:14;2.83;;;2.15;;
71888;SDS011;59762;49.998;14.858;2023-08-01T12:00:40;3.50;;;1.85;;
71888;SDS011;59762;49.998;14.858;2023-08-01T12:03:08;2.97;;;2.08;;
71888;SDS011;59762;49.998;14.858;2023-08-01T12:05:41;2.75;;;2.00;;
71888;SDS011;59762;49.998;14.858;2023-08-01T12:08:11;3.10;;;1.88;;
71888;SDS011;59762;49.998;14.858;2023-08-01T12:10:39;3.20;;;1.60;;
71888;SDS011;59762;49.998;14.858;2023-08-01T12:13:05;5.55;;;2.10;;
71888;SDS011;59762;49.998;14.858;2023-08-01T12:15:31;2.72;;;1.83;;
71888;SDS011;59762;49.998;14.858;2023-08-01T12:17:57;2.60;;;1.83;;
71888;SDS011;59762;49.998;14.858;2023-08-01T12:20:22;3.00;;;1.90;;
71888;SDS011;59762;49.998;14.858;2023-08-01T12:22:48;2.15;;;1.65;;
71888;SDS011;59762;49.998;14.858;2023-08-01T12:25:14;3.17;;;1.60;;
71888;SDS011;59762;49.998;14.858;2023-08-01T12:27:39;2.60;;;1.70;;
71888;SDS011;59762;49.998;14.858;2023-08-01T12:30:05;2.60;;;1.60;;
71888;SDS011;59762;49.998;14.858;2023-08-01T12:32:31;1.65;;;1.38;;
71888;SDS011;59762;49.998;14.858;2023-08-01T12:34:57;2.83;;;1.55;;
71888;SDS011;59762;49.998;14.858;2023-08-01T12:37:23;2.40;;;1.50;;
71888;SDS011;59762;49.998;14.858;2023-08-01T12:39:48;3.17;;;1.58;;
71888;SDS011;59762;49.998;14.858;2023-08-01T12:42:14;3.80;;;1.27;;
71888;SDS011;59762;49.998;14.858;2023-08-01T12:44:39;2.50;;;1.45;;
71888;SDS011;59762;49.998;14.858;2023-08-01T12:47:05;3.53;;;1.50;;
71888;SDS011;59762;49.998;14.858;2023-08-01T12:49:33;1.98;;;1.70;;
71888;SDS011;59762;49.998;14.858;2023-08-01T12:51:59;2.50;;;1.40;;
71888;SDS011;59762;49.998;14.858;2023-08-01T12:54:24;2.22;;;1.48;;
71888;SDS011;59762;49.998;14.858;2023-08-01T12:56:50;1.52;;;1.20;;
71888;SDS011;59762;49.998;14.858;2023-08-01T12:59:16;1.73;;;1.20;;
71888;SDS011;59762;49.998;14.858;2023-08-01T13:01:42;2.20;;;1.48;;
71888;SDS011;59762;49.998;14.858;2023-08-01T13:04:07;1.73;;;1.25;;
71888;SDS011;59762;49.998;14.858;2023-08-01T13:06:33;2.47;;;1.40;;
71888;SDS011;59762;49.998;14.858;2023-08-01T13:08:59;2.47;;;1.50;;
71888;SDS011;59762;49.998;14.858;2023-08-01T13:11:24;2.10;;;1.48;;
71888;SDS011;59762;49.998;14.858;2023-08-01T13:13:50;3.13;;;1.83;;
71888;SDS011;59762;49.998;14.858;2023-08-01T13:16:16;2.35;;;1.50;;
71888;SDS011;59762;49.998;14.858;2023-08-01T13:18:42;2.38;;;1.55;;
71888;SDS011;59762;49.998;14.858;2023-08-01T13:21:09;3.42;;;1.33;;
71888;SDS011;59762;49.998;14.858;2023-08-01T13:23:36;1.83;;;1.25;;
71888;SDS011;59762;49.998;14.858;2023-08-01T13:26:01;2.55;;;1.33;;
71888;SDS011;59762;49.998;14.858;2023-08-01T13:28:27;2.97;;;1.70;;
71888;SDS011;59762;49.998;14.858;2023-08-01T13:30:53;1.70;;;1.17;;
71888;SDS011;59762;49.998;14.858;2023-08-01T13:33:18;1.48;;;1.25;;
71888;SDS011;59762;49.998;14.858;2023-08-01T13:35:44;1.60;;;1.08;;
71888;SDS011;59762;49.998;14.858;2023-08-01T13:38:10;1.80;;;1.13;;
71888;SDS011;59762;49.998;14.858;2023-08-01T13:40:36;3.67;;;1.30;;
71888;SDS011;59762;49.998;14.858;2023-08-01T13:43:01;2.13;;;1.15;;
71888;SDS011;59762;49.998;14.858;2023-08-01T13:45:29;1.73;;;1.23;;
71888;SDS011;59762;49.998;14.858;2023-08-01T13:47:56;1.63;;;1.30;;
71888;SDS011;59762;49.998;14.858;2023-08-01T13:50:22;2.20;;;1.25;;
71888;SDS011;59762;49.998;14.858;2023-08-01T13:52:47;2.22;;;1.48;;
71888;SDS011;59762;49.998;14.858;2023-08-01T13:55:13;3.50;;;1.25;;
71888;SDS011;59762;49.998;14.858;2023-08-01T13:57:42;2.92;;;1.30;;
71888;SDS011;59762;49.998;14.858;2023-08-01T14:00:08;2.50;;;1.35;;
71888;SDS011;59762;49.998;14.858;2023-08-01T14:02:34;1.63;;;1.30;;
71888;SDS011;59762;49.998;14.858;2023-08-01T14:05:00;1.90;;;1.55;;
71888;SDS011;59762;49.998;14.858;2023-08-01T14:07:25;2.33;;;1.27;;
71888;SDS011;59762;49.998;14.858;2023-08-01T14:09:51;2.70;;;1.40;;
71888;SDS011;59762;49.998;14.858;2023-08-01T14:12:18;2.38;;;1.33;;
71888;SDS011;59762;49.998;14.858;2023-08-01T14:14:44;1.90;;;1.50;;
71888;SDS011;59762;49.998;14.858;2023-08-01T14:17:10;3.55;;;1.30;;
71888;SDS011;59762;49.998;14.858;2023-08-01T14:19:36;2.00;;;1.30;;
71888;SDS011;59762;49.998;14.858;2023-08-01T14:22:02;1.88;;;1.40;;
71888;SDS011;59762;49.998;14.858;2023-08-01T14:24:28;2.00;;;1.38;;
71888;SDS011;59762;49.998;14.858;2023-08-01T14:26:53;2.97;;;1.80;;
71888;SDS011;59762;49.998;14.858;2023-08-01T14:29:19;2.60;;;1.77;;
71888;SDS011;59762;49.998;14.858;2023-08-01T14:31:48;2.78;;;1.45;;
71888;SDS011;59762;49.998;14.858;2023-08-01T14:34:17;2.45;;;1.60;;
71888;SDS011;59762;49.998;14.858;2023-08-01T14:36:42;2.22;;;1.50;;